Home > Products > Valid Products > MTR

000
SAUS44 KLIX 260352
MTRBVE
METAR KBVE 260351Z AUTO 29004KT 10SM CLR 19/16 A3009 RMK AO2 SLP188
T01890161





000
SAUS44 KLIX 260252
MTRBVE
METAR KBVE 260251Z AUTO 00000KT 10SM CLR 19/16 A3010 RMK AO2 SLP191
T01890156 51007





000
SAUS44 KLIX 260152
MTRBVE
METAR KBVE 260151Z AUTO 24005KT 10SM CLR 18/15 A3009 RMK AO2 SLP189
T01830150





000
SAUS44 KLIX 260152
MTRBVE
METAR KBVE 260151Z AUTO 24005KT 10SM CLR 18/15 A3009 RMK AO2 SLP189
T01830150





000
SAUS44 KLIX 260052
MTRBVE
METAR KBVE 260051Z AUTO 00000KT 10SM CLR 19/13 A3008 RMK AO2 SLP187
T01890133





000
SAUS44 KLIX 252352
MTRBVE
METAR KBVE 252351Z AUTO 00000KT 10SM CLR 20/14 A3008 RMK AO2 SLP184
T02000139 10233 20200 55002





000
SAUS44 KLIX 252252
MTRBVE
METAR KBVE 252251Z AUTO 00000KT 10SM CLR 22/13 A3007 RMK AO2 SLP182
T02170133





000
SAUS44 KLIX 252152
MTRBVE
METAR KBVE 252151Z AUTO 00000KT 10SM CLR 23/13 A3008 RMK AO2 SLP184
T02280133





000
SAUS44 KLIX 252052
MTRBVE
METAR KBVE 252051Z AUTO 35005KT 10SM CLR 23/12 A3008 RMK AO2 SLP185
T02280122 56016





000
SAUS44 KLIX 251952
MTRBVE
METAR KBVE 251951Z AUTO 04006KT 10SM CLR 23/12 A3009 RMK AO2 SLP189
T02330117





000
SAUS44 KLIX 251852
MTRBVE
METAR KBVE 251851Z AUTO 02006KT 10SM CLR 23/12 A3011 RMK AO2 SLP194
T02280117





000
SAUS44 KLIX 251852
MTRBVE
METAR KBVE 251851Z AUTO 02006KT 10SM CLR 23/12 A3011 RMK AO2 SLP194
T02280117





000
SAUS44 KLIX 251752
MTRBVE
METAR KBVE 251751Z AUTO VRB06KT 10SM CLR 23/13 A3013 RMK AO2 SLP201
T02280128 10233 20194 58008





000
SAUS44 KLIX 251752
MTRBVE
METAR KBVE 251751Z AUTO VRB06KT 10SM CLR 23/13 A3013 RMK AO2 SLP201
T02280128 10233 20194 58008





000
SAUS44 KLIX 251652
MTRBVE
METAR KBVE 251651Z AUTO 04007KT 10SM CLR 23/12 A3015 RMK AO2 SLP209
T02280122





000
SAUS44 KLIX 251652
MTRBVE
METAR KBVE 251651Z AUTO 04007KT 10SM CLR 23/12 A3015 RMK AO2 SLP209
T02280122





000
SAUS44 KLIX 251552
MTRBVE
METAR KBVE 251551Z AUTO 04007KT 10SM CLR 22/13 A3015 RMK AO2 SLP210
T02220128





000
SAUS44 KLIX 251452
MTRBVE
METAR KBVE 251451Z AUTO 02008KT 10SM CLR 22/13 A3015 RMK AO2 SLP209
T02170128 51015





000
SAUS44 KLIX 251352
MTRBVE
METAR KBVE 251351Z AUTO 03008KT 10SM CLR 21/13 A3014 RMK AO2 SLP206
T02110128





000
SAUS44 KLIX 251252
MTRBVE
METAR KBVE 251251Z AUTO 02005KT 10SM CLR 20/13 A3012 RMK AO2 SLP198
T02000133





000
SAUS44 KLIX 251152
MTRBVE
METAR KBVE 251151Z AUTO 02006KT 10SM CLR 20/14 A3011 RMK AO2 SLP195
T02000139 10211 20194 51012





000
SAUS44 KLIX 251152
MTRBVE
METAR KBVE 251151Z AUTO 02006KT 10SM CLR 20/14 A3011 RMK AO2 SLP195
T02000139 10211 20194 51012





000
SAUS44 KLIX 251052
MTRBVE
METAR KBVE 251051Z AUTO 02006KT 10SM CLR 20/14 A3010 RMK AO2 SLP193
T02000144





000
SAUS44 KLIX 251052
MTRBVE
METAR KBVE 251051Z AUTO 02006KT 10SM CLR 20/14 A3010 RMK AO2 SLP193
T02000144





000
SAUS44 KLIX 250952
MTRBVE
METAR KBVE 250951Z AUTO VRB04KT 10SM CLR 20/15 A3008 RMK AO2 SLP185
T02000150





000
SAUS44 KLIX 250852
MTRBVE
METAR KBVE 250851Z AUTO 01007KT 10SM CLR 20/14 A3007 RMK AO2 SLP183
T02000139 56002





000
SAUS44 KLIX 250752
MTRBVE
METAR KBVE 250751Z AUTO VRB05KT 10SM CLR 20/15 A3007 RMK AO2 SLP183
T02000150





000
SAUS44 KLIX 250652
MTRBVE
METAR KBVE 250651Z AUTO 35006KT 10SM CLR 20/14 A3008 RMK AO2 SLP184
T02000144





000
SAUS44 KLIX 250552
MTRBVE
METAR KBVE 250551Z AUTO 35004KT 10SM CLR 20/15 A3008 RMK AO2 SLP185
T02000150 10200 20183 402330183 56005





000
SAUS44 KLIX 250452
MTRBVE
METAR KBVE 250451Z AUTO 35004KT 10SM CLR 20/16 A3008 RMK AO2 SLP185
T02000156





000
SAUS44 KLIX 250352
MTRBVE
METAR KBVE 250351Z AUTO 34004KT 10SM CLR 19/16 A3008 RMK AO2 SLP185
T01940156





000
SAUS44 KLIX 250352
MTRBVE
METAR KBVE 250351Z AUTO 34004KT 10SM CLR 19/16 A3008 RMK AO2 SLP185
T01940156





000
SAUS44 KLIX 250252
MTRBVE
METAR KBVE 250251Z AUTO 33004KT 10SM CLR 18/14 A3009 RMK AO2 SLP189
T01830139 51013





000
SAUS44 KLIX 250152
MTRBVE
METAR KBVE 250151Z AUTO 32004KT 10SM CLR 19/13 A3008 RMK AO2 SLP187
T01940133





000
SAUS44 KLIX 250052
MTRBVE
METAR KBVE 250051Z AUTO 34005KT 10SM CLR 19/13 A3007 RMK AO2 SLP182
T01940133





000
SAUS44 KLIX 242352
MTRBVE
METAR KBVE 242351Z AUTO 00000KT 10SM CLR 19/13 A3005 RMK AO2 SLP177
T01940128 10228 20194 53006





000
SAUS44 KLIX 242252
MTRBVE
METAR KBVE 242251Z AUTO 00000KT 10SM CLR 22/11 A3004 RMK AO2 SLP172
T02170111





000
SAUS44 KLIX 242152
MTRBVE
METAR KBVE 242151Z AUTO 03006KT 10SM CLR 23/09 A3004 RMK AO2 SLP172
T02280089





000
SAUS44 KLIX 242052
MTRBVE
METAR KBVE 242051Z AUTO 34007KT 10SM CLR 22/12 A3003 RMK AO2 SLP170
T02220122 56015





000
SAUS44 KLIX 241952
MTRBVE
METAR KBVE 241951Z AUTO 35005KT 10SM CLR 22/12 A3003 RMK AO2 SLP170
T02170122





000
SAUS44 KLIX 241952
MTRBVE
METAR KBVE 241951Z AUTO 35005KT 10SM CLR 22/12 A3003 RMK AO2 SLP170
T02170122





000
SAUS44 KLIX 241852
MTRBVE
METAR KBVE 241851Z AUTO 35006KT 10SM CLR 22/12 A3005 RMK AO2 SLP174
T02220117





000
SAUS44 KLIX 241752
MTRBVE
METAR KBVE 241751Z AUTO 03006KT 10SM CLR 23/12 A3008 RMK AO2 SLP185
T02280117 10233 20194 58009





000
SAUS44 KLIX 241652
MTRBVE
METAR KBVE 241651Z AUTO VRB03KT 10SM CLR 23/12 A3009 RMK AO2 SLP190
T02280117





000
SAUS44 KLIX 241552
MTRBVE
METAR KBVE 241551Z AUTO VRB05KT 10SM CLR 22/12 A3011 RMK AO2 SLP196
T02220122





000
SAUS44 KLIX 241452
MTRBVE
METAR KBVE 241451Z AUTO 04005KT 10SM CLR 22/13 A3011 RMK AO2 SLP194
T02220128 51010





000
SAUS44 KLIX 241352
MTRBVE
METAR KBVE 241351Z AUTO 03005KT 10SM CLR 21/13 A3010 RMK AO2 SLP192
T02110133





000
SAUS44 KLIX 241253
MTRBVE
METAR KBVE 241251Z AUTO 02005KT 10SM CLR 19/14 A3008 RMK AO2 SLP187
T01940139 $





000
SAUS44 KLIX 241152
MTRBVE
METAR KBVE 241151Z AUTO 36005KT 10SM CLR 19/14 A3007 RMK AO2 SLP183
T01940139 10206 20189 51009 $





000
SAUS44 KLIX 241052
MTRBVE
METAR KBVE 241051Z AUTO 36004KT 10SM CLR 19/13 A3006 RMK AO2 SLP180
T01940133 $





000
SAUS44 KLIX 241052
MTRBVE
METAR KBVE 241051Z AUTO 36004KT 10SM CLR 19/13 A3006 RMK AO2 SLP180
T01940133 $





000
SAUS44 KLIX 240952
MTRBVE
METAR KBVE 240951Z AUTO 35007KT 330V030 10SM CLR 19/14 A3006 RMK AO2
SLP178 T01940139 $





000
SAUS44 KLIX 240852
MTRBVE
METAR KBVE 240851Z AUTO 35005KT 10SM CLR 19/14 A3005 RMK AO2 SLP174
T01940139 58001





000
SAUS44 KLIX 240752
MTRBVE
METAR KBVE 240751Z AUTO VRB05KT 10SM CLR 19/14 A3005 RMK AO2 SLP175
T01940144





000
SAUS44 KLIX 240652
MTRBVE
METAR KBVE 240651Z AUTO 35004KT 10SM CLR 19/15 A3006 RMK AO2 SLP177
T01890150





000
SAUS44 KLIX 240552
MTRBVE
METAR KBVE 240551Z AUTO 05004KT 10SM CLR 21/11 A3005 RMK AO2 SLP176
T02060111 10211 20200 402390200 58008





000
SAUS44 KLIX 240452
MTRBVE
METAR KBVE 240451Z AUTO 04004KT 10SM CLR 21/12 A3006 RMK AO2 SLP178
T02110117





000
SAUS44 KLIX 240452
MTRBVE
METAR KBVE 240451Z AUTO 04004KT 10SM CLR 21/12 A3006 RMK AO2 SLP178
T02110117





000
SAUS44 KLIX 240352
MTRBVE
METAR KBVE 240351Z AUTO 04004KT 10SM CLR 21/12 A3007 RMK AO2 SLP183
T02060122





000
SAUS44 KLIX 240352
MTRBVE
METAR KBVE 240351Z AUTO 04004KT 10SM CLR 21/12 A3007 RMK AO2 SLP183
T02060122





000
SAUS44 KLIX 240252
MTRBVE
METAR KBVE 240251Z AUTO 00000KT 10SM CLR 21/12 A3007 RMK AO2 SLP184
T02060117 51008





000
SAUS44 KLIX 240252
MTRBVE
METAR KBVE 240251Z AUTO 00000KT 10SM CLR 21/12 A3007 RMK AO2 SLP184
T02060117 51008





000
SAUS44 KLIX 240152
MTRBVE
METAR KBVE 240151Z AUTO 05004KT 10SM CLR 21/14 A3007 RMK AO2 SLP182
T02060144





000
SAUS44 KLIX 240152
MTRBVE
METAR KBVE 240151Z AUTO 05004KT 10SM CLR 21/14 A3007 RMK AO2 SLP182
T02060144





000
SAUS44 KLIX 240052
MTRBVE
METAR KBVE 240051Z AUTO 36004KT 10SM CLR 21/16 A3006 RMK AO2 SLP178
T02060156





000
SAUS44 KLIX 232352
MTRBVE
METAR KBVE 232351Z AUTO 01004KT 10SM CLR 21/16 A3005 RMK AO2 SLP175
T02060156 10239 20206 53007





000
SAUS44 KLIX 232253 COR
MTRBVE
METAR KBVE 232251Z AUTO 03006KT 10SM CLR 21/16 A3003 RMK AO2 SLP169
T02110156





000
SAUS44 KLIX 232152
MTRBVE
METAR KBVE 232151Z AUTO 02007KT 10SM CLR 22/14 A3003 RMK AO2 SLP167
T02220144





000
SAUS44 KLIX 232152
MTRBVE
METAR KBVE 232151Z AUTO 02007KT 10SM CLR 22/14 A3003 RMK AO2 SLP167
T02220144





000
SAUS44 KLIX 232052
MTRBVE
METAR KBVE 232051Z AUTO 03007KT 10SM CLR 22/14 A3003 RMK AO2 SLP169
T02220144 56011





000
SAUS44 KLIX 231952
MTRBVE
METAR KBVE 231951Z AUTO 03009KT 10SM CLR 23/14 A3003 RMK AO2 SLP169
T02280144





000
SAUS44 KLIX 231952
MTRBVE
METAR KBVE 231951Z AUTO 03009KT 10SM CLR 23/14 A3003 RMK AO2 SLP169
T02280144





000
SAUS44 KLIX 231852
MTRBVE
METAR KBVE 231851Z AUTO 03006KT 10SM CLR 24/15 A3005 RMK AO2 SLP175
T02390150





000
SAUS44 KLIX 231852
MTRBVE
METAR KBVE 231851Z AUTO 03006KT 10SM CLR 24/15 A3005 RMK AO2 SLP175
T02390150





000
SAUS44 KLIX 231752
MTRBVE
METAR KBVE 231751Z AUTO 03009KT 10SM CLR 23/15 A3006 RMK AO2 SLP180
T02330150 10233 20206 58007





000
SAUS44 KLIX 231752
MTRBVE
METAR KBVE 231751Z AUTO 03009KT 10SM CLR 23/15 A3006 RMK AO2 SLP180
T02330150 10233 20206 58007





000
SAUS44 KLIX 231652
MTRBVE
METAR KBVE 231651Z AUTO 05010KT 10SM CLR 23/16 A3008 RMK AO2 SLP186
T02330156





000
SAUS44 KLIX 231652
MTRBVE
METAR KBVE 231651Z AUTO 05010KT 10SM CLR 23/16 A3008 RMK AO2 SLP186
T02330156





000
SAUS44 KLIX 231552
MTRBVE
METAR KBVE 231551Z AUTO 04009KT 10SM CLR 23/14 A3009 RMK AO2 SLP190
T02280144





000
SAUS44 KLIX 231452
MTRBVE
METAR KBVE 231451Z AUTO 04007KT 10SM CLR 23/14 A3008 RMK AO2 SLP186
T02280144 51011





000
SAUS44 KLIX 231452
MTRBVE
METAR KBVE 231451Z AUTO 04007KT 10SM CLR 23/14 A3008 RMK AO2 SLP186
T02280144 51011





000
SAUS44 KLIX 231352
MTRBVE
METAR KBVE 231351Z AUTO 05006KT 10SM CLR 22/15 A3008 RMK AO2 SLP185
T02220150





000
SAUS44 KLIX 231252
MTRBVE
METAR KBVE 231251Z AUTO 05006KT 10SM CLR 21/14 A3006 RMK AO2 SLP180
T02110144





000
SAUS44 KLIX 231152
MTRBVE
METAR KBVE 231151Z AUTO 05006KT 10SM CLR 21/14 A3005 RMK AO2 SLP175
T02060144 10222 20206 53008





000
SAUS44 KLIX 231052
MTRBVE
METAR KBVE 231051Z AUTO 05008KT 10SM CLR 21/13 A3004 RMK AO2 SLP171
T02060133





000
SAUS44 KLIX 230952
MTRBVE
METAR KBVE 230951Z AUTO 05009KT 10SM CLR 21/13 A3003 RMK AO2 SLP169
T02110133





000
SAUS44 KLIX 230952
MTRBVE
METAR KBVE 230951Z AUTO 05009KT 10SM CLR 21/13 A3003 RMK AO2 SLP169
T02110133





000
SAUS44 KLIX 230852
MTRBVE
METAR KBVE 230851Z AUTO 05008KT 10SM CLR 21/13 A3003 RMK AO2 SLP167
T02110128 56006





000
SAUS44 KLIX 230752
MTRBVE
METAR KBVE 230751Z AUTO 05008KT 10SM CLR 22/14 A3003 RMK AO2 SLP169
T02170139





000
SAUS44 KLIX 230752
MTRBVE
METAR KBVE 230751Z AUTO 05008KT 10SM CLR 22/14 A3003 RMK AO2 SLP169
T02170139





000
SAUS44 KLIX 230652
MTRBVE
METAR KBVE 230651Z AUTO 05010G15KT 10SM CLR 22/14 A3004 RMK AO2
SLP170 T02170139





000
SAUS44 KLIX 230552
MTRBVE
METAR KBVE 230551Z AUTO 04008G15KT 10SM CLR 22/14 A3004 RMK AO2
SLP173 T02220139 10228 20211 402500206 58006





000
SAUS44 KLIX 230552
MTRBVE
METAR KBVE 230551Z AUTO 04008G15KT 10SM CLR 22/14 A3004 RMK AO2
SLP173 T02220139 10228 20211 402500206 58006





000
SAUS44 KLIX 230452
MTRBVE
METAR KBVE 230451Z AUTO 04009G17KT 10SM CLR 22/14 A3005 RMK AO2
SLP175 T02220144





000
SAUS44 KLIX 230452
MTRBVE
METAR KBVE 230451Z AUTO 04009G17KT 10SM CLR 22/14 A3005 RMK AO2
SLP175 T02220144





    US Dept of Commerce
    National Oceanic and Atmospheric Administration
    National Weather Service
    1325 East West Highway
    Silver Spring, MD 20910
    Page Author: NWS Internet Services Team
Disclaimer
Information Quality
Credits
Glossary
Privacy Policy
Freedom of Information Act (FOIA)
About Us
Career Opportunities